createdAt,value
2023-03-22T00:01:46.199Z,7.96
2023-03-22T00:04:12.805Z,7.87
2023-03-22T00:06:39.743Z,7.66
2023-03-22T00:09:06.234Z,7.68
2023-03-22T00:11:32.645Z,7.53
2023-03-22T00:13:59.626Z,7.46
2023-03-22T00:16:26.227Z,7.50
2023-03-22T00:18:52.793Z,7.56
2023-03-22T00:21:19.251Z,7.59
2023-03-22T00:23:46.218Z,7.52
2023-03-22T00:26:13.626Z,7.52
2023-03-22T00:28:40.690Z,7.48
2023-03-22T00:31:07.949Z,7.49
2023-03-22T00:33:34.903Z,7.67
2023-03-22T00:36:10.271Z,7.54
2023-03-22T00:38:43.007Z,7.45
2023-03-22T00:41:18.514Z,7.36
2023-03-22T00:43:46.466Z,7.38
2023-03-22T00:46:14.485Z,7.18
2023-03-22T00:48:41.026Z,7.15
2023-03-22T00:51:08.361Z,7.17
2023-03-22T00:53:37.438Z,7.09
2023-03-22T00:56:05.556Z,7.17
2023-03-22T00:58:32.459Z,7.24
2023-03-22T01:00:58.904Z,7.35
2023-03-22T01:03:25.511Z,7.34
2023-03-22T01:05:55.574Z,7.39
2023-03-22T01:08:23.567Z,7.74
2023-03-22T01:10:50.536Z,7.53
2023-03-22T01:13:18.030Z,7.45
2023-03-22T01:15:44.858Z,7.21
2023-03-22T01:18:11.260Z,7.17
2023-03-22T01:20:37.893Z,7.18
2023-03-22T01:23:04.697Z,7.15
2023-03-22T01:25:31.474Z,7.12
2023-03-22T01:27:57.885Z,7.02
2023-03-22T01:30:24.450Z,6.91
2023-03-22T01:32:51.235Z,6.83
2023-03-22T01:35:17.741Z,6.82
2023-03-22T01:37:44.403Z,6.91
2023-03-22T01:40:12.933Z,6.98
2023-03-22T01:42:39.336Z,6.93
2023-03-22T01:45:14.654Z,6.94
2023-03-22T01:47:51.323Z,6.73
2023-03-22T01:50:18.329Z,6.60
2023-03-22T01:52:44.914Z,6.71
2023-03-22T01:55:12.609Z,6.65
2023-03-22T01:57:42.435Z,6.56
2023-03-22T02:00:15.821Z,6.47
2023-03-22T02:02:44.165Z,6.51
2023-03-22T02:05:12.183Z,6.70
2023-03-22T02:07:40.797Z,6.42
2023-03-22T02:10:16.465Z,6.30
2023-03-22T02:13:09.412Z,6.17
2023-03-22T02:15:43.439Z,6.50
2023-03-22T02:18:40.809Z,6.41
2023-03-22T02:21:25.624Z,6.43
2023-03-22T02:24:29.455Z,6.32
2023-03-22T02:27:25.615Z,6.54
2023-03-22T02:30:09.157Z,6.58
2023-03-22T02:32:50.409Z,6.65
2023-03-22T02:35:31.276Z,6.53
2023-03-22T02:38:22.440Z,6.49
2023-03-22T02:41:27.496Z,6.99
2023-03-22T02:43:59.537Z,6.75
2023-03-22T02:46:36.290Z,6.61
2023-03-22T02:49:36.215Z,6.36
2023-03-22T02:52:22.591Z,6.21
2023-03-22T02:55:05.971Z,6.03
2023-03-22T02:58:02.199Z,6.04
2023-03-22T03:00:30.868Z,5.90
2023-03-22T03:03:11.161Z,5.88
2023-03-22T03:05:45.436Z,5.91
2023-03-22T03:08:14.189Z,5.95
2023-03-22T03:10:42.220Z,6.05
2023-03-22T03:13:12.734Z,5.75
2023-03-22T03:15:43.836Z,5.68
2023-03-22T03:18:26.354Z,5.55
2023-03-22T03:21:02.311Z,5.57
2023-03-22T03:23:37.697Z,5.43
2023-03-22T03:26:16.272Z,5.92
2023-03-22T03:28:58.093Z,5.66
2023-03-22T03:31:43.566Z,5.71
2023-03-22T03:34:30.588Z,5.58
2023-03-22T03:37:04.909Z,5.51
2023-03-22T03:39:34.819Z,5.46
2023-03-22T03:42:03.515Z,5.40
2023-03-22T03:44:31.595Z,5.32
2023-03-22T03:46:59.000Z,5.37
2023-03-22T03:49:27.076Z,5.29
2023-03-22T03:51:55.626Z,5.28
2023-03-22T03:54:23.090Z,5.20
2023-03-22T03:56:49.522Z,5.12
2023-03-22T03:59:17.340Z,5.32
2023-03-22T04:01:49.932Z,5.17
2023-03-22T04:04:26.802Z,5.38
2023-03-22T04:06:59.209Z,5.23
2023-03-22T04:09:28.212Z,5.18
2023-03-22T04:11:56.046Z,5.00
2023-03-22T04:14:23.109Z,4.93
2023-03-22T04:16:50.069Z,4.87
2023-03-22T04:19:17.163Z,4.78
2023-03-22T04:21:43.671Z,4.74
2023-03-22T04:24:10.471Z,4.78
2023-03-22T04:26:37.034Z,4.76
2023-03-22T04:29:03.944Z,4.87
2023-03-22T04:31:31.836Z,4.70
2023-03-22T04:34:00.356Z,4.81
2023-03-22T04:36:31.054Z,4.82
2023-03-22T04:38:58.067Z,4.74
2023-03-22T04:41:24.562Z,4.81
2023-03-22T04:43:51.603Z,4.73
2023-03-22T04:46:18.046Z,4.56
2023-03-22T04:48:44.629Z,4.36
2023-03-22T04:51:11.437Z,4.65
2023-03-22T04:53:40.906Z,4.65
2023-03-22T04:56:10.518Z,4.81
2023-03-22T04:58:40.084Z,4.91
2023-03-22T05:01:07.447Z,4.90
2023-03-22T05:03:36.596Z,4.91
2023-03-22T05:06:06.533Z,4.66
2023-03-22T05:08:33.807Z,4.67
2023-03-22T05:11:11.644Z,4.91
2023-03-22T05:13:38.275Z,4.89
2023-03-22T05:16:06.400Z,4.70
2023-03-22T05:18:33.332Z,4.41
2023-03-22T05:21:00.923Z,4.58
2023-03-22T05:23:27.485Z,4.76
2023-03-22T05:25:54.176Z,4.82
2023-03-22T05:28:21.391Z,4.85
2023-03-22T05:30:49.238Z,4.91
2023-03-22T05:33:16.958Z,5.19
2023-03-22T05:35:43.745Z,5.61
2023-03-22T05:38:10.706Z,5.41
2023-03-22T05:40:37.635Z,5.56
2023-03-22T05:43:04.521Z,5.31
2023-03-22T05:45:32.420Z,5.11
2023-03-22T05:47:58.954Z,4.92
2023-03-22T05:50:25.343Z,5.34
2023-03-22T05:52:52.152Z,5.20
2023-03-22T05:55:19.301Z,5.24
2023-03-22T05:57:46.767Z,5.25
2023-03-22T06:00:16.175Z,5.72
2023-03-22T06:02:43.609Z,5.65
2023-03-22T06:05:12.388Z,5.71
2023-03-22T06:07:39.880Z,5.78
2023-03-22T06:10:07.816Z,5.88
2023-03-22T06:12:34.874Z,6.01
2023-03-22T06:15:01.293Z,6.13
2023-03-22T06:17:28.119Z,6.12
2023-03-22T06:19:54.812Z,6.27
2023-03-22T06:22:21.930Z,6.23
2023-03-22T06:24:49.619Z,6.22
2023-03-22T06:27:16.294Z,6.53
2023-03-22T06:29:42.674Z,6.54
2023-03-22T06:32:09.205Z,6.38
2023-03-22T06:34:35.737Z,6.38
2023-03-22T06:37:02.197Z,6.46
2023-03-22T06:39:28.623Z,6.47
2023-03-22T06:41:55.260Z,6.58
2023-03-22T06:44:22.527Z,6.52
2023-03-22T06:46:48.973Z,6.77
2023-03-22T06:49:16.712Z,6.81
2023-03-22T06:51:43.151Z,7.06
2023-03-22T06:54:09.614Z,7.26
2023-03-22T06:56:35.970Z,7.21
2023-03-22T06:59:02.378Z,7.46
2023-03-22T07:01:28.716Z,7.29
2023-03-22T07:03:55.166Z,7.58
2023-03-22T07:06:21.566Z,7.59
2023-03-22T07:08:49.115Z,7.66
2023-03-22T07:11:16.518Z,7.72
2023-03-22T07:13:42.967Z,8.02
2023-03-22T07:16:09.748Z,8.12
2023-03-22T07:18:36.687Z,8.28
2023-03-22T07:21:03.697Z,8.39
2023-03-22T07:23:30.575Z,8.48
2023-03-22T07:25:59.144Z,8.71
2023-03-22T07:28:25.711Z,8.88
2023-03-22T07:31:07.230Z,9.12
2023-03-22T07:33:33.599Z,9.15
2023-03-22T07:36:00.005Z,9.47
2023-03-22T07:38:26.512Z,9.42
2023-03-22T07:40:54.879Z,9.45
2023-03-22T07:43:21.923Z,9.60
2023-03-22T07:45:49.886Z,9.53
2023-03-22T07:48:17.325Z,9.51
2023-03-22T07:50:44.235Z,9.55
2023-03-22T07:53:11.330Z,10.06
2023-03-22T07:55:38.116Z,10.09
2023-03-22T07:58:05.742Z,10.13
2023-03-22T08:00:32.434Z,10.14
2023-03-22T08:02:58.981Z,10.16
2023-03-22T08:05:25.710Z,10.26
2023-03-22T08:07:52.476Z,10.29
2023-03-22T08:10:19.413Z,10.43
2023-03-22T08:12:46.202Z,10.61
2023-03-22T08:15:12.902Z,10.72
2023-03-22T08:17:39.277Z,10.79
2023-03-22T08:20:09.183Z,11.00
2023-03-22T08:22:36.411Z,11.10
2023-03-22T08:25:04.685Z,11.20
2023-03-22T08:27:31.570Z,11.07
2023-03-22T08:29:58.251Z,11.36
2023-03-22T08:32:24.793Z,11.61
2023-03-22T08:34:51.262Z,11.79
2023-03-22T08:37:20.242Z,11.82
2023-03-22T08:39:47.095Z,12.03
2023-03-22T08:42:13.567Z,12.07
2023-03-22T08:44:40.158Z,12.31
2023-03-22T08:47:08.607Z,12.49
2023-03-22T08:49:35.599Z,12.63
2023-03-22T08:52:02.091Z,12.79
2023-03-22T08:54:33.678Z,12.76
2023-03-22T08:57:00.651Z,12.91
2023-03-22T08:59:27.819Z,12.98
2023-03-22T09:01:54.336Z,13.23
2023-03-22T09:04:20.780Z,13.20
2023-03-22T09:06:47.286Z,13.36
2023-03-22T09:09:13.763Z,13.39
2023-03-22T09:11:42.425Z,13.50
2023-03-22T09:14:10.122Z,13.52
2023-03-22T09:16:36.876Z,13.66
2023-03-22T09:19:03.859Z,13.70
2023-03-22T09:21:30.537Z,13.69
2023-03-22T09:23:56.948Z,13.64
2023-03-22T09:26:24.124Z,13.97
2023-03-22T09:28:50.916Z,14.04
2023-03-22T09:31:20.337Z,13.96
2023-03-22T09:33:47.025Z,14.12
2023-03-22T09:36:13.902Z,14.18
2023-03-22T09:38:41.984Z,14.41
2023-03-22T09:41:36.788Z,14.59
2023-03-22T09:44:07.385Z,14.46
2023-03-22T09:46:37.192Z,14.72
2023-03-22T09:49:10.832Z,14.74
2023-03-22T09:51:54.421Z,14.73
2023-03-22T09:54:41.152Z,14.87
2023-03-22T09:57:20.410Z,14.91
2023-03-22T10:00:00.838Z,14.87
2023-03-22T10:02:45.764Z,15.00
2023-03-22T10:05:33.718Z,14.96
2023-03-22T10:08:12.769Z,15.21
2023-03-22T10:10:43.031Z,15.41
2023-03-22T10:13:27.209Z,15.58
2023-03-22T10:16:06.529Z,15.83
2023-03-22T10:18:37.107Z,15.87
2023-03-22T10:21:05.083Z,15.88
2023-03-22T10:23:44.135Z,15.92
2023-03-22T10:26:19.973Z,15.87
2023-03-22T10:28:53.548Z,15.84
2023-03-22T10:31:21.225Z,15.87
2023-03-22T10:34:03.520Z,15.90
2023-03-22T10:36:34.742Z,15.88
2023-03-22T10:39:08.983Z,15.73
2023-03-22T10:41:36.421Z,15.64
2023-03-22T10:44:05.370Z,15.68
2023-03-22T10:46:38.388Z,15.85
2023-03-22T10:49:07.202Z,15.94
2023-03-22T10:51:51.584Z,16.05
2023-03-22T10:54:21.178Z,16.19
2023-03-22T10:56:47.799Z,16.27
2023-03-22T10:59:49.567Z,16.49
2023-03-22T11:02:22.005Z,16.32
2023-03-22T11:04:54.603Z,16.44
2023-03-22T11:07:42.641Z,16.56
2023-03-22T11:10:09.033Z,16.92
2023-03-22T11:12:39.949Z,17.03
2023-03-22T11:15:18.127Z,17.04
2023-03-22T11:17:44.476Z,17.33
2023-03-22T11:20:17.043Z,17.15
2023-03-22T11:22:46.119Z,17.22
2023-03-22T11:25:18.755Z,17.40
2023-03-22T11:28:09.374Z,17.29
2023-03-22T11:30:37.147Z,17.44
2023-03-22T11:33:16.857Z,17.53
2023-03-22T11:35:53.673Z,17.45
2023-03-22T11:38:29.803Z,17.43
2023-03-22T11:41:02.322Z,17.57
2023-03-22T11:43:39.219Z,17.60
2023-03-22T11:46:08.481Z,17.59
2023-03-22T11:48:36.708Z,17.62
2023-03-22T11:51:12.439Z,17.39
2023-03-22T11:53:43.011Z,17.51
2023-03-22T11:56:12.377Z,17.31
2023-03-22T11:58:48.567Z,17.34
2023-03-22T12:01:40.772Z,17.58
2023-03-22T12:04:17.631Z,17.45
2023-03-22T12:06:44.296Z,17.58
2023-03-22T12:09:25.544Z,17.57
2023-03-22T12:11:55.186Z,17.56
2023-03-22T12:14:40.182Z,17.50
2023-03-22T12:17:38.561Z,17.70
2023-03-22T12:20:27.552Z,17.42
2023-03-22T12:22:55.150Z,17.64
2023-03-22T12:25:26.971Z,17.71
2023-03-22T12:28:01.113Z,18.08
2023-03-22T12:30:31.632Z,17.77
2023-03-22T12:33:06.585Z,17.93
2023-03-22T12:35:36.262Z,17.98
2023-03-22T12:38:19.074Z,18.01
2023-03-22T12:40:47.592Z,17.90
2023-03-22T12:43:30.983Z,17.94
2023-03-22T12:46:02.240Z,17.93
2023-03-22T12:48:34.911Z,17.93
2023-03-22T12:51:07.450Z,18.15
2023-03-22T12:53:42.310Z,18.21
2023-03-22T12:56:12.935Z,17.89
2023-03-22T12:58:39.420Z,17.95
2023-03-22T13:01:45.121Z,17.89
2023-03-22T13:04:43.161Z,17.75
2023-03-22T13:07:37.204Z,17.65
2023-03-22T13:10:36.282Z,17.89
2023-03-22T13:13:23.040Z,17.86
2023-03-22T13:16:10.925Z,17.57
2023-03-22T13:18:40.311Z,17.87
2023-03-22T13:21:19.033Z,17.91
2023-03-22T13:24:10.415Z,17.93
2023-03-22T13:26:53.305Z,18.02
2023-03-22T13:29:38.400Z,17.84
2023-03-22T13:32:20.933Z,18.07
2023-03-22T13:34:52.110Z,17.93
2023-03-22T13:37:37.205Z,17.85
2023-03-22T13:40:31.800Z,17.75
2023-03-22T13:43:19.829Z,17.97
2023-03-22T13:46:13.091Z,18.09
2023-03-22T13:48:48.397Z,18.13
2023-03-22T13:51:25.599Z,18.22
2023-03-22T13:54:06.691Z,18.21
2023-03-22T13:56:42.211Z,18.00
2023-03-22T13:59:13.476Z,17.94
2023-03-22T14:01:50.174Z,17.75
2023-03-22T14:04:22.692Z,17.82
2023-03-22T14:06:55.043Z,17.70
2023-03-22T14:09:44.555Z,17.60
2023-03-22T14:12:28.353Z,17.64
2023-03-22T14:15:05.028Z,17.48
2023-03-22T14:17:46.489Z,17.53
2023-03-22T14:20:19.138Z,17.51
